createdAt,value
2023-03-23T16:00:44.973Z,98263.78
2023-03-23T16:05:50.107Z,98270.84
2023-03-23T16:10:53.773Z,98260.63
2023-03-23T16:15:57.261Z,98258.06
2023-03-23T16:21:03.929Z,98249.25
2023-03-23T16:26:07.862Z,98237.53
2023-03-23T16:31:11.818Z,98261.09
2023-03-23T16:36:16.725Z,98259.47
2023-03-23T16:41:20.213Z,98257.91
2023-03-23T16:46:23.833Z,98245.75
2023-03-23T16:51:28.809Z,98225.41
2023-03-23T16:56:32.507Z,98226.38
2023-03-23T17:01:36.259Z,98215.50
2023-03-23T17:06:43.257Z,98213.78
2023-03-23T17:11:49.403Z,98203.00
2023-03-23T17:16:52.775Z,98211.50
2023-03-23T17:21:57.668Z,98197.34
2023-03-23T17:27:00.876Z,98201.69
2023-03-23T17:32:04.492Z,98191.00
2023-03-23T17:37:12.101Z,98189.00
2023-03-23T17:42:15.682Z,98181.28
2023-03-23T17:47:19.027Z,98186.44
2023-03-23T17:52:24.406Z,98169.13
2023-03-23T17:57:28.045Z,98176.91
2023-03-23T18:02:31.470Z,98166.47
2023-03-23T18:07:36.832Z,98160.47
2023-03-23T18:12:40.652Z,98151.06
2023-03-23T18:17:48.309Z,98145.19
2023-03-23T18:22:53.331Z,98129.50
2023-03-23T18:27:56.460Z,98128.78
2023-03-23T18:33:08.272Z,98103.22
2023-03-23T18:38:14.944Z,98113.34
2023-03-23T18:43:18.883Z,98115.75
2023-03-23T18:48:23.144Z,98103.16
2023-03-23T18:53:28.753Z,98112.25
2023-03-23T18:58:32.176Z,98105.69
2023-03-23T19:03:35.849Z,98100.28
2023-03-23T19:08:41.059Z,98108.16
2023-03-23T19:14:00.355Z,98110.63
2023-03-23T19:19:06.865Z,98092.78
2023-03-23T19:24:12.164Z,98090.81
2023-03-23T19:34:25.414Z,98088.78
2023-03-23T19:39:30.339Z,98088.13
2023-03-23T19:44:33.687Z,98058.16
2023-03-23T19:49:38.948Z,98051.06
2023-03-23T19:54:43.738Z,98048.22
2023-03-23T19:59:46.999Z,98051.09
2023-03-23T20:04:50.568Z,98043.06
2023-03-23T20:09:55.463Z,98052.66
2023-03-23T20:14:59.121Z,98066.81
2023-03-23T20:20:02.711Z,98041.59
2023-03-23T20:25:09.130Z,98047.63
2023-03-23T20:30:12.900Z,98034.66
2023-03-23T20:35:16.554Z,98022.53
2023-03-23T20:40:22.119Z,98017.91
2023-03-23T20:45:25.675Z,98013.13
2023-03-23T20:50:29.713Z,98007.44
2023-03-23T20:55:34.852Z,98008.25
2023-03-23T21:00:40.579Z,98001.38
2023-03-23T21:05:45.470Z,97999.81
2023-03-23T21:10:51.060Z,97999.31
2023-03-23T21:15:55.487Z,97995.75
2023-03-23T21:21:00.568Z,97983.56
2023-03-23T21:26:06.117Z,97980.03
2023-03-23T21:31:09.249Z,97964.75
2023-03-23T21:36:12.797Z,97972.63
2023-03-23T21:41:17.705Z,97952.03
2023-03-23T21:46:21.188Z,97954.50
2023-03-23T21:51:26.302Z,97942.78
2023-03-23T21:56:31.578Z,97931.47
2023-03-23T22:01:37.343Z,97930.59
2023-03-23T22:06:42.542Z,97934.84
2023-03-23T22:11:47.487Z,97910.41
2023-03-23T22:16:50.720Z,97907.69
2023-03-23T22:21:54.275Z,97897.53
2023-03-23T22:26:59.717Z,97887.75
2023-03-23T22:32:03.355Z,97896.53
2023-03-23T22:37:08.681Z,97872.75
2023-03-23T22:42:14.967Z,97867.28
2023-03-23T22:47:18.466Z,97873.09
2023-03-23T22:52:22.021Z,97857.72
2023-03-23T22:57:26.890Z,97854.41
2023-03-23T23:02:30.110Z,97841.41
2023-03-23T23:07:33.548Z,97834.56
2023-03-23T23:12:38.457Z,97829.41
2023-03-23T23:17:42.314Z,97805.13
2023-03-23T23:22:46.234Z,97799.16
2023-03-23T23:27:51.349Z,97786.34
2023-03-23T23:32:56.028Z,97773.56
2023-03-23T23:37:59.686Z,97796.84
2023-03-23T23:43:05.297Z,97790.25
2023-03-23T23:48:08.956Z,97777.44
2023-03-23T23:53:13.067Z,97774.88
2023-03-23T23:58:18.042Z,97766.19
